createdAt,value
2022-11-13T00:00:37.544Z,68.60
2022-11-13T00:03:04.288Z,68.50
2022-11-13T00:05:31.011Z,68.70
2022-11-13T00:07:57.763Z,68.80
2022-11-13T00:10:24.442Z,68.50
2022-11-13T00:12:51.175Z,68.50
2022-11-13T00:15:17.915Z,68.60
2022-11-13T00:17:44.643Z,69.00
2022-11-13T00:20:11.567Z,68.80
2022-11-13T00:22:38.251Z,68.70
2022-11-13T00:25:05.154Z,68.70
2022-11-13T00:27:32.165Z,68.80
2022-11-13T00:29:58.907Z,68.90
2022-11-13T00:32:26.599Z,68.80
2022-11-13T00:34:53.419Z,68.90
2022-11-13T00:37:20.207Z,69.30
2022-11-13T00:39:46.931Z,69.00
2022-11-13T00:42:13.699Z,68.90
2022-11-13T00:44:40.418Z,68.90
2022-11-13T00:47:07.120Z,69.00
2022-11-13T00:49:33.959Z,69.00
2022-11-13T00:52:00.639Z,69.00
2022-11-13T00:54:27.506Z,69.00
2022-11-13T00:56:54.244Z,69.10
2022-11-13T00:59:20.917Z,69.20
2022-11-13T01:01:47.684Z,69.30
2022-11-13T01:04:14.482Z,69.30
2022-11-13T01:06:41.239Z,69.40
2022-11-13T01:09:07.976Z,69.40
2022-11-13T01:11:34.697Z,69.20
2022-11-13T01:14:01.582Z,69.20
2022-11-13T01:16:28.375Z,69.10
2022-11-13T01:18:55.398Z,68.80
2022-11-13T01:21:24.312Z,69.20
2022-11-13T01:23:51.158Z,69.20
2022-11-13T01:26:20.683Z,69.10
2022-11-13T01:28:47.456Z,69.00
2022-11-13T01:31:16.865Z,69.00
2022-11-13T01:33:44.552Z,68.90
2022-11-13T01:36:16.804Z,68.70
2022-11-13T01:38:43.495Z,69.10
2022-11-13T01:41:23.577Z,68.60
2022-11-13T01:43:51.216Z,69.10
2022-11-13T01:46:28.909Z,69.20
2022-11-13T01:48:58.792Z,69.10
2022-11-13T01:51:30.117Z,69.20
2022-11-13T01:53:56.889Z,69.10
2022-11-13T01:56:23.639Z,69.00
2022-11-13T01:59:14.099Z,69.10
2022-11-13T02:01:41.070Z,68.90
2022-11-13T02:04:07.851Z,69.30
2022-11-13T02:06:41.733Z,69.40
2022-11-13T02:09:08.593Z,69.50
2022-11-13T02:11:35.271Z,69.90
2022-11-13T02:14:02.008Z,69.90
2022-11-13T02:16:29.976Z,69.90
2022-11-13T02:18:56.811Z,69.80
2022-11-13T02:21:50.810Z,69.70
2022-11-13T02:24:26.311Z,70.00
2022-11-13T02:26:53.065Z,69.90
2022-11-13T02:29:19.806Z,69.70
2022-11-13T02:31:46.519Z,69.80
2022-11-13T02:34:13.261Z,69.90
2022-11-13T02:36:39.962Z,69.70
2022-11-13T02:39:08.456Z,70.20
2022-11-13T02:41:35.191Z,70.50
2022-11-13T02:44:01.895Z,70.40
2022-11-13T02:46:28.551Z,70.50
2022-11-13T02:48:55.285Z,70.50
2022-11-13T02:51:22.018Z,70.40
2022-11-13T02:53:48.758Z,70.50
2022-11-13T02:56:15.477Z,70.40
2022-11-13T02:58:42.210Z,70.50
2022-11-13T03:01:09.014Z,70.40
2022-11-13T03:06:22.497Z,71.00
2022-11-13T03:08:49.340Z,70.80
2022-11-13T03:11:16.077Z,70.70
2022-11-13T03:13:42.851Z,70.80
2022-11-13T03:16:14.309Z,71.00
2022-11-13T03:18:41.214Z,71.10
2022-11-13T03:21:13.247Z,71.00
2022-11-13T03:23:40.504Z,71.10
2022-11-13T03:26:08.387Z,70.90
2022-11-13T03:28:35.339Z,71.00
2022-11-13T03:31:02.172Z,70.90
2022-11-13T03:33:28.934Z,71.00
2022-11-13T03:35:55.679Z,70.70
2022-11-13T03:38:22.504Z,70.90
2022-11-13T03:40:49.261Z,70.80
2022-11-13T03:43:16.158Z,71.00
2022-11-13T03:45:45.015Z,70.80
2022-11-13T03:48:11.965Z,70.90
2022-11-13T03:50:44.273Z,71.10
2022-11-13T03:53:12.245Z,70.90
2022-11-13T03:55:38.991Z,70.70
2022-11-13T03:58:05.794Z,70.60
2022-11-13T04:00:32.758Z,70.80
2022-11-13T04:02:59.468Z,70.60
2022-11-13T04:05:26.547Z,70.40
2022-11-13T04:07:53.316Z,70.70
2022-11-13T04:10:20.055Z,71.20
2022-11-13T04:12:46.794Z,70.40
2022-11-13T04:15:13.545Z,70.40
2022-11-13T04:17:40.264Z,71.20
2022-11-13T04:20:07.852Z,70.40
2022-11-13T04:22:34.574Z,70.20
2022-11-13T04:25:01.283Z,70.60
2022-11-13T04:27:28.033Z,70.50
2022-11-13T04:29:54.740Z,70.80
2022-11-13T04:32:21.451Z,70.60
2022-11-13T04:34:48.144Z,70.90
2022-11-13T04:37:14.868Z,70.70
2022-11-13T04:39:41.711Z,71.00
2022-11-13T04:42:28.821Z,71.10
2022-11-13T04:44:55.573Z,71.20
2022-11-13T04:47:22.703Z,71.30
2022-11-13T04:49:49.427Z,71.00
2022-11-13T04:52:16.213Z,70.90
2022-11-13T04:54:42.970Z,71.10
2022-11-13T04:57:09.703Z,71.00
2022-11-13T04:59:36.445Z,71.00
2022-11-13T05:02:03.421Z,71.00
2022-11-13T05:04:30.221Z,71.10
2022-11-13T05:06:57.063Z,71.00
2022-11-13T05:09:24.101Z,71.10
2022-11-13T05:11:50.956Z,70.80
2022-11-13T05:14:17.745Z,70.70
2022-11-13T05:16:44.738Z,71.00
2022-11-13T05:19:11.479Z,71.00
2022-11-13T05:21:38.648Z,70.80
2022-11-13T05:24:05.727Z,71.10
2022-11-13T05:26:32.467Z,71.10
2022-11-13T05:28:59.755Z,70.90
2022-11-13T05:31:26.590Z,70.60
2022-11-13T05:33:53.644Z,70.30
2022-11-13T05:36:20.827Z,70.10
2022-11-13T05:38:47.604Z,70.00
2022-11-13T05:41:18.759Z,70.50
2022-11-13T05:43:45.867Z,71.70
2022-11-13T05:46:23.307Z,70.80
2022-11-13T05:48:54.642Z,70.00
2022-11-13T05:51:25.956Z,70.10
2022-11-13T05:53:53.547Z,70.50
2022-11-13T05:56:24.828Z,70.20
2022-11-13T05:58:52.133Z,70.40
2022-11-13T06:01:20.875Z,70.30
2022-11-13T06:03:47.709Z,71.20
2022-11-13T06:06:17.298Z,70.40
2022-11-13T06:08:44.336Z,71.30
2022-11-13T06:11:12.694Z,70.50
2022-11-13T06:13:39.588Z,70.30
2022-11-13T06:16:16.865Z,69.80
2022-11-13T06:18:44.190Z,70.30
2022-11-13T06:21:12.789Z,70.50
2022-11-13T06:23:39.706Z,70.30
2022-11-13T06:26:08.573Z,70.40
2022-11-13T06:28:35.497Z,70.30
2022-11-13T06:31:06.799Z,70.20
2022-11-13T06:33:33.891Z,70.00
2022-11-13T06:36:11.471Z,69.70
2022-11-13T06:38:38.751Z,70.40
2022-11-13T06:41:06.193Z,71.20
2022-11-13T06:43:33.034Z,70.70
2022-11-13T06:46:02.996Z,70.50
2022-11-13T06:48:29.939Z,71.00
2022-11-13T06:51:02.471Z,70.10
2022-11-13T06:53:29.384Z,70.00
2022-11-13T06:55:56.201Z,70.60
2022-11-13T06:58:22.905Z,70.30
2022-11-13T07:00:49.774Z,71.20
2022-11-13T07:03:17.702Z,70.30
2022-11-13T07:05:44.644Z,70.10
2022-11-13T07:08:12.078Z,70.10
2022-11-13T07:10:38.776Z,69.80
2022-11-13T07:13:05.582Z,70.00
2022-11-13T07:15:36.150Z,70.20
2022-11-13T07:18:03.383Z,70.20
2022-11-13T07:20:30.375Z,70.50
2022-11-13T07:23:00.916Z,70.90
2022-11-13T07:25:27.797Z,71.00
2022-11-13T07:27:54.547Z,70.90
2022-11-13T07:30:21.334Z,71.50
2022-11-13T07:32:48.114Z,72.20
2022-11-13T07:35:14.928Z,72.50
2022-11-13T07:37:41.736Z,73.20
2022-11-13T07:40:08.910Z,75.10
2022-11-13T07:42:35.659Z,74.60
2022-11-13T07:45:02.591Z,74.80
2022-11-13T07:47:29.347Z,76.80
2022-11-13T07:50:03.445Z,75.70
2022-11-13T07:52:33.570Z,76.50
2022-11-13T07:55:00.295Z,77.70
2022-11-13T07:57:27.281Z,77.00
2022-11-13T07:59:54.043Z,76.40
2022-11-13T08:02:25.217Z,76.00
2022-11-13T08:04:53.495Z,75.80
2022-11-13T08:07:20.292Z,76.00
2022-11-13T08:09:47.071Z,75.80
2022-11-13T08:12:14.193Z,76.40
2022-11-13T08:14:40.872Z,76.90
2022-11-13T08:17:07.590Z,78.00
2022-11-13T08:19:34.288Z,76.90
2022-11-13T08:22:00.992Z,76.60
2022-11-13T08:24:27.720Z,76.40
2022-11-13T08:26:54.483Z,76.40
2022-11-13T08:29:21.170Z,76.80
2022-11-13T08:31:47.897Z,76.70
2022-11-13T08:34:14.733Z,76.50
2022-11-13T08:36:41.665Z,77.10
2022-11-13T08:39:09.397Z,77.00
2022-11-13T08:41:36.212Z,76.90
2022-11-13T08:44:03.061Z,76.70
2022-11-13T08:46:29.841Z,76.70
2022-11-13T08:48:56.587Z,76.40
2022-11-13T08:51:23.353Z,76.60
2022-11-13T08:53:50.077Z,76.50
2022-11-13T08:56:16.768Z,76.30
2022-11-13T08:58:43.496Z,76.50
2022-11-13T09:01:10.220Z,76.60
2022-11-13T09:03:37.119Z,76.20
2022-11-13T09:06:07.934Z,75.90
2022-11-13T09:08:34.760Z,75.60
2022-11-13T09:11:05.168Z,75.70
2022-11-13T09:13:32.946Z,76.10
2022-11-13T09:16:00.516Z,75.80
2022-11-13T09:18:27.925Z,75.70
2022-11-13T09:20:55.574Z,75.50
2022-11-13T09:23:22.304Z,75.80
2022-11-13T09:25:49.056Z,76.40
2022-11-13T09:28:15.818Z,75.80
2022-11-13T09:30:42.584Z,76.00
2022-11-13T09:33:10.274Z,75.70
2022-11-13T09:35:37.075Z,75.80
2022-11-13T09:38:11.012Z,75.70
2022-11-13T09:40:43.205Z,76.00
2022-11-13T09:43:42.383Z,76.00
2022-11-13T09:46:35.389Z,75.70
2022-11-13T09:49:26.533Z,75.30
2022-11-13T09:51:57.090Z,74.20
2022-11-13T09:54:24.055Z,73.60
2022-11-13T09:57:01.953Z,73.10
2022-11-13T09:59:59.608Z,72.40
2022-11-13T10:02:49.276Z,72.00
2022-11-13T10:05:29.383Z,71.40
2022-11-13T10:08:01.747Z,71.30
2022-11-13T10:10:28.411Z,71.20
2022-11-13T10:12:56.155Z,71.00
2022-11-13T10:15:22.933Z,70.10
2022-11-13T10:17:56.956Z,70.20
2022-11-13T10:20:48.574Z,69.70
2022-11-13T10:23:24.585Z,69.00
2022-11-13T10:25:52.526Z,68.00
2022-11-13T10:28:48.996Z,67.70
2022-11-13T10:31:12.925Z,65.70
2022-11-13T10:33:39.626Z,65.70
2022-11-13T10:36:21.584Z,65.70
2022-11-13T10:38:56.746Z,65.90
2022-11-13T10:41:23.464Z,65.90
2022-11-13T10:44:25.875Z,65.10
2022-11-13T10:47:19.844Z,64.90
2022-11-13T10:49:58.069Z,64.50
2022-11-13T10:52:30.029Z,63.10
2022-11-13T10:55:35.692Z,63.10
2022-11-13T10:58:04.360Z,62.90
2022-11-13T11:00:33.345Z,62.80
2022-11-13T11:03:00.120Z,62.50
2022-11-13T11:05:27.136Z,62.10
2022-11-13T11:07:54.629Z,61.90
2022-11-13T11:10:21.535Z,61.50
2022-11-13T11:13:10.127Z,60.80
2022-11-13T11:15:43.336Z,60.40
2022-11-13T11:18:31.934Z,59.80
2022-11-13T11:20:59.915Z,59.10
2022-11-13T11:23:29.490Z,59.30
2022-11-13T11:25:58.721Z,59.20
2022-11-13T11:28:49.688Z,59.20
2022-11-13T11:31:37.578Z,59.10
2022-11-13T11:34:42.961Z,58.90
2022-11-13T11:37:17.656Z,59.20
2022-11-13T11:39:58.104Z,58.50
2022-11-13T11:42:48.776Z,58.50
2022-11-13T11:45:25.706Z,58.70
2022-11-13T11:47:53.474Z,58.30
2022-11-13T11:50:43.953Z,58.40
2022-11-13T11:53:15.122Z,58.40
2022-11-13T11:55:44.529Z,58.00
2022-11-13T11:58:52.419Z,57.80
2022-11-13T12:01:44.148Z,57.70
2022-11-13T12:04:35.264Z,57.70
2022-11-13T12:07:18.234Z,57.70
2022-11-13T12:10:06.781Z,57.20
2022-11-13T12:12:50.950Z,56.90
2022-11-13T12:15:23.424Z,56.80
2022-11-13T12:18:02.968Z,56.80
2022-11-13T12:20:49.597Z,56.20
2022-11-13T12:23:23.972Z,56.30
2022-11-13T12:25:53.524Z,56.50
2022-11-13T12:28:40.666Z,55.50
2022-11-13T12:31:39.294Z,55.80
2022-11-13T12:34:30.147Z,55.10
2022-11-13T12:36:56.882Z,55.00
2022-11-13T12:39:42.934Z,55.20
2022-11-13T12:42:34.280Z,54.80
2022-11-13T12:45:10.186Z,54.50
2022-11-13T12:47:36.954Z,54.50
2022-11-13T12:50:31.741Z,54.40
2022-11-13T12:53:03.691Z,54.00
2022-11-13T12:55:37.151Z,54.00
2022-11-13T12:58:26.601Z,54.30
2022-11-13T13:01:02.611Z,54.50
2022-11-13T13:03:41.060Z,54.80
2022-11-13T13:06:25.527Z,53.60
2022-11-13T13:09:00.951Z,53.20
2022-11-13T13:11:43.387Z,53.10
2022-11-13T13:14:31.456Z,53.20
2022-11-13T13:17:22.985Z,53.20
2022-11-13T13:20:24.205Z,52.70
2022-11-13T13:22:58.560Z,51.80
2022-11-13T13:25:27.576Z,52.30
2022-11-13T13:28:01.435Z,52.30
2022-11-13T13:30:31.264Z,52.60
2022-11-13T13:33:19.089Z,52.20
2022-11-13T13:35:55.163Z,51.70
2022-11-13T13:38:51.892Z,51.00
2022-11-13T13:41:26.210Z,50.70
2022-11-13T13:44:21.741Z,50.50
2022-11-13T13:46:48.905Z,50.90
2022-11-13T13:49:17.907Z,51.10
2022-11-13T13:51:46.532Z,51.00
2022-11-13T13:54:18.483Z,50.60
2022-11-13T13:56:45.543Z,50.80
2022-11-13T13:59:33.359Z,50.80
2022-11-13T14:02:01.798Z,50.40
2022-11-13T14:04:29.973Z,50.40
2022-11-13T14:07:01.628Z,49.70
2022-11-13T14:09:29.821Z,48.80
2022-11-13T14:12:07.845Z,48.80
2022-11-13T14:14:39.065Z,48.50
2022-11-13T14:17:05.925Z,48.70
2022-11-13T14:19:32.589Z,48.80
2022-11-13T14:22:01.048Z,49.00
2022-11-13T14:24:34.947Z,48.80
2022-11-13T14:27:06.685Z,48.80
2022-11-13T14:29:36.501Z,48.60
2022-11-13T14:32:04.845Z,48.00
2022-11-13T14:34:31.688Z,48.40
2022-11-13T14:37:26.609Z,48.70
2022-11-13T14:39:53.410Z,48.40
2022-11-13T14:42:23.877Z,47.70
2022-11-13T14:44:50.592Z,47.70
2022-11-13T14:47:22.773Z,47.80
2022-11-13T14:49:49.508Z,47.80
2022-11-13T14:52:26.542Z,47.90
2022-11-13T14:55:19.832Z,47.60
2022-11-13T14:57:50.126Z,47.70
2022-11-13T15:00:18.240Z,47.60
2022-11-13T15:02:44.916Z,47.50
2022-11-13T15:05:11.688Z,47.70
2022-11-13T15:07:41.098Z,48.10
2022-11-13T15:10:14.668Z,48.30
2022-11-13T15:12:41.416Z,48.50
2022-11-13T15:15:22.777Z,48.40
2022-11-13T15:17:50.577Z,49.00
2022-11-13T15:20:27.180Z,49.30
2022-11-13T15:22:54.335Z,49.30
2022-11-13T15:25:22.160Z,49.90
2022-11-13T15:27:48.984Z,49.10
2022-11-13T15:30:15.761Z,49.20
2022-11-13T15:32:42.488Z,49.30
2022-11-13T15:35:17.348Z,49.60
2022-11-13T15:37:45.247Z,49.70
2022-11-13T15:40:13.220Z,50.10
2022-11-13T15:42:40.200Z,50.30
2022-11-13T15:45:07.386Z,50.50
2022-11-13T15:47:35.683Z,50.70
2022-11-13T15:50:19.663Z,50.70
2022-11-13T15:52:47.477Z,51.00
2022-11-13T15:55:25.501Z,50.80
2022-11-13T15:57:52.509Z,50.90
2022-11-13T16:00:26.989Z,51.20
2022-11-13T16:02:55.918Z,51.60
2022-11-13T16:05:25.141Z,51.70
2022-11-13T16:07:55.301Z,52.20
2022-11-13T16:10:22.704Z,52.60
2022-11-13T16:12:49.454Z,52.80
2022-11-13T16:15:17.021Z,53.00
2022-11-13T16:17:48.633Z,53.40
2022-11-13T16:20:16.779Z,53.60
2022-11-13T16:22:44.007Z,53.80
2022-11-13T16:25:19.207Z,53.90
2022-11-13T16:27:45.895Z,54.00
2022-11-13T16:30:23.357Z,54.10
2022-11-13T16:32:50.203Z,54.40
2022-11-13T16:35:17.591Z,54.60
2022-11-13T16:37:44.407Z,54.70
2022-11-13T16:40:25.515Z,54.80
2022-11-13T16:42:52.502Z,55.20
2022-11-13T16:45:19.738Z,56.70
2022-11-13T16:47:46.532Z,57.20
2022-11-13T16:50:15.124Z,57.40
2022-11-13T16:52:42.315Z,57.40
2022-11-13T16:55:09.215Z,57.20
2022-11-13T16:57:35.946Z,56.80
2022-11-13T17:00:03.424Z,56.60
2022-11-13T17:02:30.200Z,56.60
2022-11-13T17:04:56.996Z,56.90
2022-11-13T17:07:23.739Z,56.70
2022-11-13T17:10:10.049Z,56.70
2022-11-13T17:12:37.288Z,56.60
2022-11-13T17:15:04.361Z,56.60
2022-11-13T17:17:31.193Z,56.60
2022-11-13T17:19:57.917Z,56.80
2022-11-13T17:22:24.597Z,56.60
2022-11-13T17:24:51.322Z,56.80
2022-11-13T17:27:18.162Z,57.00
2022-11-13T17:29:44.909Z,56.80
2022-11-13T17:32:11.585Z,56.70
2022-11-13T17:34:38.305Z,56.70
2022-11-13T17:37:05.161Z,56.90
2022-11-13T17:39:31.855Z,57.00
2022-11-13T17:41:58.604Z,57.20
2022-11-13T17:44:25.352Z,57.20
2022-11-13T17:46:52.107Z,57.20
2022-11-13T17:49:18.881Z,57.30
2022-11-13T17:51:45.571Z,57.50
2022-11-13T17:54:12.363Z,58.00
2022-11-13T17:56:40.452Z,56.80
2022-11-13T17:59:08.274Z,56.60
2022-11-13T18:01:35.097Z,56.60
2022-11-13T18:04:01.820Z,56.70
2022-11-13T18:06:28.861Z,57.00
2022-11-13T18:08:55.552Z,57.50
2022-11-13T18:11:26.829Z,57.70
2022-11-13T18:13:53.584Z,58.10
2022-11-13T18:16:21.448Z,59.10
2022-11-13T18:18:49.620Z,58.90
2022-11-13T18:21:23.157Z,59.20
2022-11-13T18:23:55.406Z,59.50
2022-11-13T18:26:22.101Z,59.80
2022-11-13T18:28:48.765Z,60.20
2022-11-13T18:31:18.802Z,60.40
2022-11-13T18:33:45.507Z,60.50
2022-11-13T18:36:12.381Z,60.40
2022-11-13T18:38:39.061Z,61.30
2022-11-13T18:41:15.680Z,60.60
2022-11-13T18:43:44.254Z,60.60
2022-11-13T18:46:11.626Z,60.40
2022-11-13T18:48:39.853Z,60.50
2022-11-13T18:51:14.807Z,61.00
2022-11-13T18:53:43.662Z,61.40
2022-11-13T18:56:16.752Z,61.40
2022-11-13T18:58:43.955Z,61.30
2022-11-13T19:01:21.584Z,61.30
2022-11-13T19:06:36.820Z,61.40
2022-11-13T19:09:05.752Z,61.20
2022-11-13T19:11:32.811Z,61.40
2022-11-13T19:13:59.546Z,61.60
2022-11-13T19:16:37.252Z,61.60
2022-11-13T19:19:21.248Z,61.70
2022-11-13T19:21:48.296Z,61.80
2022-11-13T19:24:15.199Z,61.70
2022-11-13T19:26:42.703Z,61.20
2022-11-13T19:29:09.543Z,60.80
2022-11-13T19:31:36.331Z,60.50
2022-11-13T19:34:06.073Z,60.20
2022-11-13T19:36:33.192Z,60.20
2022-11-13T19:38:59.993Z,59.90
2022-11-13T19:41:27.886Z,59.90
2022-11-13T19:43:54.658Z,59.80
2022-11-13T19:46:21.562Z,60.30
2022-11-13T19:48:48.724Z,60.70
2022-11-13T19:51:17.472Z,60.90
2022-11-13T19:53:46.366Z,61.20
2022-11-13T19:56:14.577Z,61.50
2022-11-13T19:58:44.123Z,61.80
2022-11-13T20:01:11.853Z,62.00
2022-11-13T20:03:38.682Z,62.30
2022-11-13T20:06:05.731Z,62.50
2022-11-13T20:08:35.851Z,62.30
2022-11-13T20:11:07.549Z,62.20
2022-11-13T20:13:36.579Z,62.30
2022-11-13T20:16:04.373Z,62.30
2022-11-13T20:18:31.356Z,62.20
2022-11-13T20:20:58.428Z,62.40
2022-11-13T20:23:25.966Z,62.60
2022-11-13T20:25:57.033Z,62.70
2022-11-13T20:28:24.212Z,62.70
2022-11-13T20:30:51.205Z,62.80
2022-11-13T20:33:22.316Z,63.10
2022-11-13T20:35:55.615Z,63.10
2022-11-13T20:38:22.395Z,63.10
2022-11-13T20:40:49.188Z,63.10
2022-11-13T20:43:15.943Z,63.20
2022-11-13T20:45:42.636Z,63.30
2022-11-13T20:48:09.396Z,63.20
2022-11-13T20:50:36.618Z,63.20
2022-11-13T20:53:03.949Z,62.90
2022-11-13T20:55:30.967Z,62.90
2022-11-13T20:57:57.783Z,62.80
2022-11-13T21:00:24.572Z,63.00
2022-11-13T21:02:51.824Z,63.10
2022-11-13T21:05:18.591Z,63.10
2022-11-13T21:07:45.280Z,63.30
2022-11-13T21:10:11.956Z,63.40
2022-11-13T21:12:38.628Z,63.50
2022-11-13T21:15:05.859Z,63.70
2022-11-13T21:17:32.529Z,64.50
2022-11-13T21:19:59.522Z,63.80
2022-11-13T21:22:26.232Z,63.90
2022-11-13T21:24:52.903Z,64.10
2022-11-13T21:27:19.971Z,64.20
2022-11-13T21:29:46.678Z,64.20
2022-11-13T21:32:13.362Z,63.90
2022-11-13T21:34:40.042Z,63.90
2022-11-13T21:37:07.694Z,64.30
2022-11-13T21:39:34.658Z,64.30
2022-11-13T21:42:01.315Z,64.20
2022-11-13T21:44:28.092Z,64.20
2022-11-13T21:46:54.867Z,64.50
2022-11-13T21:49:21.596Z,64.60
2022-11-13T21:51:48.313Z,64.60
2022-11-13T21:54:15.416Z,64.40
2022-11-13T21:56:42.262Z,64.50
2022-11-13T21:59:09.093Z,64.50
2022-11-13T22:01:38.470Z,64.60
2022-11-13T22:04:06.057Z,64.50
2022-11-13T22:06:33.749Z,65.30
2022-11-13T22:09:14.796Z,64.60
2022-11-13T22:11:41.976Z,64.40
2022-11-13T22:14:08.678Z,64.10
2022-11-13T22:16:37.053Z,64.20
2022-11-13T22:19:05.177Z,64.40
2022-11-13T22:21:32.041Z,64.50
2022-11-13T22:23:59.408Z,64.40
2022-11-13T22:26:27.004Z,64.80
2022-11-13T22:28:54.277Z,64.90
2022-11-13T22:31:22.677Z,65.70
2022-11-13T22:33:52.560Z,64.90
2022-11-13T22:36:23.239Z,65.20
2022-11-13T22:38:49.985Z,65.00
2022-11-13T22:41:28.336Z,64.90
2022-11-13T22:43:59.735Z,64.80
2022-11-13T22:46:28.127Z,64.70
2022-11-13T22:48:55.462Z,64.60
2022-11-13T22:51:31.965Z,64.40
2022-11-13T22:54:03.243Z,64.50
2022-11-13T22:56:31.213Z,64.50
2022-11-13T22:58:59.030Z,64.70
2022-11-13T23:01:27.487Z,64.70
2022-11-13T23:03:54.714Z,64.90
2022-11-13T23:06:23.240Z,64.90
2022-11-13T23:08:50.092Z,64.80
2022-11-13T23:11:25.453Z,64.80
2022-11-13T23:13:54.238Z,64.60
2022-11-13T23:16:22.610Z,64.50
2022-11-13T23:18:50.214Z,64.60
2022-11-13T23:21:17.143Z,64.70
2022-11-13T23:23:43.895Z,64.80
2022-11-13T23:26:11.113Z,64.80
2022-11-13T23:28:37.821Z,64.80
2022-11-13T23:31:04.567Z,65.70
2022-11-13T23:33:31.388Z,65.80
2022-11-13T23:35:58.178Z,65.90
2022-11-13T23:38:24.932Z,65.00
2022-11-13T23:40:55.615Z,65.20
2022-11-13T23:43:23.563Z,65.20
2022-11-13T23:45:53.578Z,65.20
2022-11-13T23:48:20.324Z,65.30
2022-11-13T23:50:47.076Z,65.40
2022-11-13T23:53:13.875Z,65.60
2022-11-13T23:55:41.177Z,66.10
2022-11-13T23:58:11.417Z,66.30
